KLDM/LDM METAR and TAF weather

Enter ICAO airport designator
Station Type Date Time Source
KLDM METAR 2022/01/26 13:15 UTC NOAA

KLDM 261315Z AUTO 00000KT 10SM OVC025 M12/M16 A3038 RMK AO2 T11161157


Station Type Date Time Source
KLDM Decoded METAR 2022/01/26 13:15 UTC NOAA

Ludington, Mason County Airport, MI, United States (KLDM) 43-58N 86-24W
Jan 26, 2022 - 08:15 AM EST / 2022.01.26 1315 UTC
Wind: Calm:0
Visibility: 10 mile(s):0
Sky conditions: overcast
Temperature: 11.1 F (-11.6 C)
Dew Point: 3.7 F (-15.7 C)
Relative Humidity: 71%
Pressure (altimeter): 30.38 in. Hg (1028 hPa)
ob: KLDM 261315Z AUTO 00000KT 10SM OVC025 M12/M16 A3038 RMK AO2 T11161157
cycle: 13

Station Type Date Time Source
KLDM TAF UTC NOAA

Error!

Example: see airport list